sensor_id;sensor_type;location;lat;lon;timestamp;P1;durP1;ratioP1;P2;durP2;ratioP2
46054;SDS011;31788;6.954;-71.872;2023-02-28T00:00:42;15.80;;;10.73;;
46054;SDS011;31788;6.954;-71.872;2023-02-28T00:03:09;16.73;;;9.95;;
46054;SDS011;31788;6.954;-71.872;2023-02-28T00:05:35;16.35;;;10.27;;
46054;SDS011;31788;6.954;-71.872;2023-02-28T00:08:02;16.60;;;10.77;;
46054;SDS011;31788;6.954;-71.872;2023-02-28T00:10:30;13.70;;;9.82;;
46054;SDS011;31788;6.954;-71.872;2023-02-28T00:13:01;17.57;;;9.47;;
46054;SDS011;31788;6.954;-71.872;2023-02-28T00:15:30;13.80;;;9.90;;
46054;SDS011;31788;6.954;-71.872;2023-02-28T00:17:57;13.85;;;9.32;;
46054;SDS011;31788;6.954;-71.872;2023-02-28T00:20:24;12.48;;;9.20;;
46054;SDS011;31788;6.954;-71.872;2023-02-28T00:22:52;14.60;;;9.80;;
46054;SDS011;31788;6.954;-71.872;2023-02-28T00:25:21;12.95;;;9.60;;
46054;SDS011;31788;6.954;-71.872;2023-02-28T00:27:50;15.07;;;9.70;;
46054;SDS011;31788;6.954;-71.872;2023-02-28T00:30:21;11.50;;;9.13;;
46054;SDS011;31788;6.954;-71.872;2023-02-28T00:32:49;12.90;;;9.45;;
46054;SDS011;31788;6.954;-71.872;2023-02-28T00:35:16;19.95;;;10.00;;
46054;SDS011;31788;6.954;-71.872;2023-02-28T00:37:43;26.45;;;10.55;;
46054;SDS011;31788;6.954;-71.872;2023-02-28T00:40:09;11.50;;;8.93;;
46054;SDS011;31788;6.954;-71.872;2023-02-28T00:42:37;20.48;;;9.48;;
46054;SDS011;31788;6.954;-71.872;2023-02-28T00:45:11;13.98;;;9.07;;
46054;SDS011;31788;6.954;-71.872;2023-02-28T00:47:38;12.23;;;9.52;;
46054;SDS011;31788;6.954;-71.872;2023-02-28T00:50:05;12.30;;;9.32;;
46054;SDS011;31788;6.954;-71.872;2023-02-28T00:52:32;13.45;;;9.35;;
46054;SDS011;31788;6.954;-71.872;2023-02-28T00:54:58;15.15;;;9.43;;
46054;SDS011;31788;6.954;-71.872;2023-02-28T00:57:25;15.68;;;9.68;;
46054;SDS011;31788;6.954;-71.872;2023-02-28T00:59:52;17.70;;;9.32;;
46054;SDS011;31788;6.954;-71.872;2023-02-28T01:02:22;15.82;;;9.30;;
46054;SDS011;31788;6.954;-71.872;2023-02-28T01:04:48;14.02;;;9.73;;
46054;SDS011;31788;6.954;-71.872;2023-02-28T01:07:15;15.57;;;9.35;;
46054;SDS011;31788;6.954;-71.872;2023-02-28T01:09:41;27.83;;;10.13;;
46054;SDS011;31788;6.954;-71.872;2023-02-28T01:12:08;19.70;;;10.02;;
46054;SDS011;31788;6.954;-71.872;2023-02-28T01:14:35;18.50;;;9.02;;
46054;SDS011;31788;6.954;-71.872;2023-02-28T01:17:06;13.35;;;9.63;;
46054;SDS011;31788;6.954;-71.872;2023-02-28T01:19:34;15.90;;;9.68;;
46054;SDS011;31788;6.954;-71.872;2023-02-28T01:22:02;16.92;;;9.07;;
46054;SDS011;31788;6.954;-71.872;2023-02-28T01:24:29;12.90;;;8.95;;
46054;SDS011;31788;6.954;-71.872;2023-02-28T01:26:58;13.70;;;9.07;;
46054;SDS011;31788;6.954;-71.872;2023-02-28T01:29:24;13.30;;;9.48;;
46054;SDS011;31788;6.954;-71.872;2023-02-28T01:31:51;14.90;;;9.45;;
46054;SDS011;31788;6.954;-71.872;2023-02-28T01:34:17;12.75;;;9.35;;
46054;SDS011;31788;6.954;-71.872;2023-02-28T01:36:47;23.10;;;16.20;;
46054;SDS011;31788;6.954;-71.872;2023-02-28T01:39:13;33.25;;;25.10;;
46054;SDS011;31788;6.954;-71.872;2023-02-28T01:41:43;27.38;;;20.05;;
46054;SDS011;31788;6.954;-71.872;2023-02-28T01:47:14;17.30;;;12.50;;
46054;SDS011;31788;6.954;-71.872;2023-02-28T01:49:41;16.95;;;11.90;;
46054;SDS011;31788;6.954;-71.872;2023-02-28T01:52:08;17.80;;;12.02;;
46054;SDS011;31788;6.954;-71.872;2023-02-28T01:54:44;16.45;;;11.38;;
46054;SDS011;31788;6.954;-71.872;2023-02-28T01:57:18;25.08;;;12.73;;
46054;SDS011;31788;6.954;-71.872;2023-02-28T01:59:59;17.05;;;11.80;;
46054;SDS011;31788;6.954;-71.872;2023-02-28T02:02:30;15.43;;;11.23;;
46054;SDS011;31788;6.954;-71.872;2023-02-28T02:05:02;15.77;;;10.45;;
46054;SDS011;31788;6.954;-71.872;2023-02-28T02:07:32;13.45;;;10.35;;
46054;SDS011;31788;6.954;-71.872;2023-02-28T02:10:11;14.50;;;10.33;;
46054;SDS011;31788;6.954;-71.872;2023-02-28T02:15:34;14.53;;;10.20;;
46054;SDS011;31788;6.954;-71.872;2023-02-28T02:27:03;12.27;;;9.73;;
46054;SDS011;31788;6.954;-71.872;2023-02-28T02:38:47;13.63;;;8.90;;
46054;SDS011;31788;6.954;-71.872;2023-02-28T02:41:36;13.70;;;9.00;;
46054;SDS011;31788;6.954;-71.872;2023-02-28T02:46:42;14.27;;;9.48;;
46054;SDS011;31788;6.954;-71.872;2023-02-28T02:49:16;14.30;;;9.50;;
46054;SDS011;31788;6.954;-71.872;2023-02-28T02:51:53;13.00;;;9.27;;
46054;SDS011;31788;6.954;-71.872;2023-02-28T02:54:27;11.88;;;9.02;;
46054;SDS011;31788;6.954;-71.872;2023-02-28T02:56:57;13.82;;;9.77;;
46054;SDS011;31788;6.954;-71.872;2023-02-28T02:59:43;10.90;;;9.18;;
46054;SDS011;31788;6.954;-71.872;2023-02-28T03:02:11;12.65;;;9.80;;
46054;SDS011;31788;6.954;-71.872;2023-02-28T03:04:46;15.02;;;10.40;;
46054;SDS011;31788;6.954;-71.872;2023-02-28T03:07:18;12.52;;;9.63;;
46054;SDS011;31788;6.954;-71.872;2023-02-28T03:09:51;11.63;;;8.93;;
46054;SDS011;31788;6.954;-71.872;2023-02-28T03:12:19;12.95;;;9.45;;
46054;SDS011;31788;6.954;-71.872;2023-02-28T03:15:11;11.07;;;8.98;;
46054;SDS011;31788;6.954;-71.872;2023-02-28T03:23:26;12.10;;;9.18;;
46054;SDS011;31788;6.954;-71.872;2023-02-28T03:26:21;11.83;;;8.97;;
46054;SDS011;31788;6.954;-71.872;2023-02-28T03:37:11;11.00;;;9.30;;
46054;SDS011;31788;6.954;-71.872;2023-02-28T03:39:45;12.35;;;9.02;;
46054;SDS011;31788;6.954;-71.872;2023-02-28T03:42:22;12.77;;;9.25;;
46054;SDS011;31788;6.954;-71.872;2023-02-28T03:45:00;11.30;;;9.05;;
46054;SDS011;31788;6.954;-71.872;2023-02-28T03:47:37;11.88;;;9.57;;
46054;SDS011;31788;6.954;-71.872;2023-02-28T03:50:24;10.75;;;8.88;;
46054;SDS011;31788;6.954;-71.872;2023-02-28T03:53:12;11.18;;;9.23;;
46054;SDS011;31788;6.954;-71.872;2023-02-28T03:55:48;11.02;;;9.13;;
46054;SDS011;31788;6.954;-71.872;2023-02-28T03:58:38;10.57;;;9.48;;
46054;SDS011;31788;6.954;-71.872;2023-02-28T04:01:15;12.48;;;9.60;;
46054;SDS011;31788;6.954;-71.872;2023-02-28T04:03:58;12.20;;;9.60;;
46054;SDS011;31788;6.954;-71.872;2023-02-28T04:06:24;12.38;;;9.57;;
46054;SDS011;31788;6.954;-71.872;2023-02-28T04:08:52;11.30;;;9.40;;
46054;SDS011;31788;6.954;-71.872;2023-02-28T04:13:52;11.17;;;9.23;;
46054;SDS011;31788;6.954;-71.872;2023-02-28T04:16:19;11.07;;;9.20;;
46054;SDS011;31788;6.954;-71.872;2023-02-28T04:18:45;13.98;;;9.60;;
46054;SDS011;31788;6.954;-71.872;2023-02-28T04:21:12;11.03;;;9.77;;
46054;SDS011;31788;6.954;-71.872;2023-02-28T04:23:39;14.20;;;10.80;;
46054;SDS011;31788;6.954;-71.872;2023-02-28T04:26:08;11.57;;;9.30;;
46054;SDS011;31788;6.954;-71.872;2023-02-28T04:28:36;11.17;;;9.93;;
46054;SDS011;31788;6.954;-71.872;2023-02-28T04:31:04;11.10;;;9.07;;
46054;SDS011;31788;6.954;-71.872;2023-02-28T04:33:31;11.18;;;9.80;;
46054;SDS011;31788;6.954;-71.872;2023-02-28T04:36:02;11.45;;;9.57;;
46054;SDS011;31788;6.954;-71.872;2023-02-28T04:38:34;10.57;;;9.48;;
46054;SDS011;31788;6.954;-71.872;2023-02-28T04:41:02;11.23;;;10.02;;
46054;SDS011;31788;6.954;-71.872;2023-02-28T04:43:30;13.13;;;9.65;;
46054;SDS011;31788;6.954;-71.872;2023-02-28T04:45:57;11.20;;;10.00;;
46054;SDS011;31788;6.954;-71.872;2023-02-28T04:48:30;13.32;;;10.48;;
46054;SDS011;31788;6.954;-71.872;2023-02-28T04:51:03;12.40;;;9.80;;
46054;SDS011;31788;6.954;-71.872;2023-02-28T04:53:31;12.60;;;9.77;;
46054;SDS011;31788;6.954;-71.872;2023-02-28T04:55:58;12.55;;;10.48;;
46054;SDS011;31788;6.954;-71.872;2023-02-28T04:58:25;11.10;;;10.00;;
46054;SDS011;31788;6.954;-71.872;2023-02-28T05:00:52;11.90;;;9.50;;
46054;SDS011;31788;6.954;-71.872;2023-02-28T05:03:20;11.65;;;10.18;;
46054;SDS011;31788;6.954;-71.872;2023-02-28T05:05:47;12.90;;;9.93;;
46054;SDS011;31788;6.954;-71.872;2023-02-28T05:08:14;13.48;;;10.00;;
46054;SDS011;31788;6.954;-71.872;2023-02-28T05:10:41;10.70;;;9.68;;
46054;SDS011;31788;6.954;-71.872;2023-02-28T05:13:09;12.38;;;9.95;;
46054;SDS011;31788;6.954;-71.872;2023-02-28T05:15:38;11.05;;;9.95;;
46054;SDS011;31788;6.954;-71.872;2023-02-28T05:18:04;11.02;;;9.93;;
46054;SDS011;31788;6.954;-71.872;2023-02-28T05:20:31;11.43;;;9.82;;
46054;SDS011;31788;6.954;-71.872;2023-02-28T05:22:58;11.35;;;9.68;;
46054;SDS011;31788;6.954;-71.872;2023-02-28T05:25:25;11.68;;;9.73;;
46054;SDS011;31788;6.954;-71.872;2023-02-28T05:27:52;12.73;;;9.88;;
46054;SDS011;31788;6.954;-71.872;2023-02-28T05:30:19;10.98;;;9.93;;
46054;SDS011;31788;6.954;-71.872;2023-02-28T05:32:49;11.27;;;10.13;;
46054;SDS011;31788;6.954;-71.872;2023-02-28T05:35:16;11.10;;;9.98;;
46054;SDS011;31788;6.954;-71.872;2023-02-28T05:37:43;11.30;;;10.02;;
46054;SDS011;31788;6.954;-71.872;2023-02-28T05:40:10;12.20;;;9.88;;
46054;SDS011;31788;6.954;-71.872;2023-02-28T05:42:37;11.82;;;9.85;;
46054;SDS011;31788;6.954;-71.872;2023-02-28T05:45:04;11.10;;;9.90;;
46054;SDS011;31788;6.954;-71.872;2023-02-28T05:47:32;11.88;;;10.52;;
46054;SDS011;31788;6.954;-71.872;2023-02-28T05:49:58;11.40;;;10.20;;
46054;SDS011;31788;6.954;-71.872;2023-02-28T05:52:26;12.05;;;10.07;;
46054;SDS011;31788;6.954;-71.872;2023-02-28T05:54:53;13.52;;;10.50;;
46054;SDS011;31788;6.954;-71.872;2023-02-28T05:57:20;12.48;;;10.98;;
46054;SDS011;31788;6.954;-71.872;2023-02-28T05:59:46;12.57;;;10.38;;
46054;SDS011;31788;6.954;-71.872;2023-02-28T06:02:13;12.57;;;9.93;;
46054;SDS011;31788;6.954;-71.872;2023-02-28T06:04:42;11.77;;;10.55;;
46054;SDS011;31788;6.954;-71.872;2023-02-28T06:07:09;11.73;;;10.55;;
46054;SDS011;31788;6.954;-71.872;2023-02-28T06:09:36;11.77;;;10.23;;
46054;SDS011;31788;6.954;-71.872;2023-02-28T06:12:04;12.93;;;10.63;;
46054;SDS011;31788;6.954;-71.872;2023-02-28T06:14:33;11.55;;;10.35;;
46054;SDS011;31788;6.954;-71.872;2023-02-28T06:17:00;11.60;;;10.40;;
46054;SDS011;31788;6.954;-71.872;2023-02-28T06:19:27;13.02;;;10.95;;
46054;SDS011;31788;6.954;-71.872;2023-02-28T06:21:55;12.45;;;10.27;;
46054;SDS011;31788;6.954;-71.872;2023-02-28T06:24:23;11.68;;;10.18;;
46054;SDS011;31788;6.954;-71.872;2023-02-28T06:26:53;12.48;;;10.50;;
46054;SDS011;31788;6.954;-71.872;2023-02-28T06:29:19;12.38;;;10.90;;
46054;SDS011;31788;6.954;-71.872;2023-02-28T06:31:46;11.90;;;10.67;;
46054;SDS011;31788;6.954;-71.872;2023-02-28T06:34:14;13.93;;;10.50;;
46054;SDS011;31788;6.954;-71.872;2023-02-28T06:36:42;12.03;;;10.77;;
46054;SDS011;31788;6.954;-71.872;2023-02-28T06:39:09;11.87;;;10.63;;
46054;SDS011;31788;6.954;-71.872;2023-02-28T06:41:36;12.32;;;10.65;;
46054;SDS011;31788;6.954;-71.872;2023-02-28T06:44:05;11.57;;;10.38;;
46054;SDS011;31788;6.954;-71.872;2023-02-28T06:46:39;13.25;;;10.48;;
46054;SDS011;31788;6.954;-71.872;2023-02-28T06:49:06;12.52;;;10.63;;
46054;SDS011;31788;6.954;-71.872;2023-02-28T06:51:37;11.48;;;10.30;;
46054;SDS011;31788;6.954;-71.872;2023-02-28T06:54:09;13.90;;;10.30;;
46054;SDS011;31788;6.954;-71.872;2023-02-28T06:56:35;12.95;;;10.52;;
46054;SDS011;31788;6.954;-71.872;2023-02-28T06:59:02;12.83;;;10.77;;
46054;SDS011;31788;6.954;-71.872;2023-02-28T07:01:30;11.20;;;10.10;;
46054;SDS011;31788;6.954;-71.872;2023-02-28T07:03:59;11.75;;;10.55;;
46054;SDS011;31788;6.954;-71.872;2023-02-28T07:06:27;11.70;;;10.05;;
46054;SDS011;31788;6.954;-71.872;2023-02-28T07:08:54;11.20;;;10.10;;
46054;SDS011;31788;6.954;-71.872;2023-02-28T07:11:21;11.85;;;10.57;;
46054;SDS011;31788;6.954;-71.872;2023-02-28T07:13:53;12.10;;;10.90;;
46054;SDS011;31788;6.954;-71.872;2023-02-28T07:16:21;11.63;;;10.43;;
46054;SDS011;31788;6.954;-71.872;2023-02-28T07:18:48;11.73;;;10.50;;
46054;SDS011;31788;6.954;-71.872;2023-02-28T07:21:15;12.13;;;10.93;;
46054;SDS011;31788;6.954;-71.872;2023-02-28T07:23:42;11.60;;;10.40;;
46054;SDS011;31788;6.954;-71.872;2023-02-28T07:26:10;11.68;;;10.18;;
46054;SDS011;31788;6.954;-71.872;2023-02-28T07:28:40;12.05;;;10.85;;
46054;SDS011;31788;6.954;-71.872;2023-02-28T07:31:10;12.15;;;10.55;;
46054;SDS011;31788;6.954;-71.872;2023-02-28T07:33:39;12.38;;;10.60;;
46054;SDS011;31788;6.954;-71.872;2023-02-28T07:36:07;12.27;;;10.85;;
46054;SDS011;31788;6.954;-71.872;2023-02-28T07:38:43;12.20;;;11.00;;
46054;SDS011;31788;6.954;-71.872;2023-02-28T07:41:13;13.00;;;10.93;;
46054;SDS011;31788;6.954;-71.872;2023-02-28T07:43:43;12.38;;;11.05;;
46054;SDS011;31788;6.954;-71.872;2023-02-28T07:46:12;11.98;;;10.77;;
46054;SDS011;31788;6.954;-71.872;2023-02-28T07:48:40;14.90;;;11.10;;
46054;SDS011;31788;6.954;-71.872;2023-02-28T07:51:07;12.55;;;10.73;;
46054;SDS011;31788;6.954;-71.872;2023-02-28T07:53:34;11.60;;;10.40;;
46054;SDS011;31788;6.954;-71.872;2023-02-28T07:56:01;13.10;;;11.15;;
46054;SDS011;31788;6.954;-71.872;2023-02-28T07:58:28;12.35;;;10.95;;
46054;SDS011;31788;6.954;-71.872;2023-02-28T08:00:56;13.60;;;10.90;;
46054;SDS011;31788;6.954;-71.872;2023-02-28T08:03:23;12.10;;;10.70;;
46054;SDS011;31788;6.954;-71.872;2023-02-28T08:05:50;12.13;;;10.90;;
46054;SDS011;31788;6.954;-71.872;2023-02-28T08:08:20;13.23;;;11.82;;
46054;SDS011;31788;6.954;-71.872;2023-02-28T08:10:46;13.50;;;11.88;;
46054;SDS011;31788;6.954;-71.872;2023-02-28T08:13:13;11.93;;;10.63;;
46054;SDS011;31788;6.954;-71.872;2023-02-28T08:15:41;12.75;;;11.15;;
46054;SDS011;31788;6.954;-71.872;2023-02-28T08:18:08;14.10;;;11.25;;
46054;SDS011;31788;6.954;-71.872;2023-02-28T08:20:35;13.15;;;11.57;;
46054;SDS011;31788;6.954;-71.872;2023-02-28T08:23:01;13.23;;;11.70;;
46054;SDS011;31788;6.954;-71.872;2023-02-28T08:25:28;14.13;;;10.93;;
46054;SDS011;31788;6.954;-71.872;2023-02-28T08:27:55;12.63;;;11.13;;
46054;SDS011;31788;6.954;-71.872;2023-02-28T08:30:21;14.18;;;11.30;;
46054;SDS011;31788;6.954;-71.872;2023-02-28T08:32:48;13.20;;;11.57;;
46054;SDS011;31788;6.954;-71.872;2023-02-28T08:35:14;12.55;;;11.25;;
46054;SDS011;31788;6.954;-71.872;2023-02-28T08:37:41;12.55;;;11.30;;
46054;SDS011;31788;6.954;-71.872;2023-02-28T08:40:08;14.57;;;10.97;;
46054;SDS011;31788;6.954;-71.872;2023-02-28T08:42:38;12.60;;;10.77;;
46054;SDS011;31788;6.954;-71.872;2023-02-28T08:45:05;12.07;;;10.70;;
46054;SDS011;31788;6.954;-71.872;2023-02-28T08:47:32;11.93;;;10.73;;
46054;SDS011;31788;6.954;-71.872;2023-02-28T08:49:59;12.40;;;11.10;;
46054;SDS011;31788;6.954;-71.872;2023-02-28T08:52:25;12.27;;;11.00;;
46054;SDS011;31788;6.954;-71.872;2023-02-28T08:54:52;11.77;;;10.57;;
46054;SDS011;31788;6.954;-71.872;2023-02-28T08:57:19;13.73;;;11.20;;
46054;SDS011;31788;6.954;-71.872;2023-02-28T08:59:45;12.65;;;11.35;;
46054;SDS011;31788;6.954;-71.872;2023-02-28T09:02:12;11.80;;;10.65;;
46054;SDS011;31788;6.954;-71.872;2023-02-28T09:04:40;11.98;;;10.27;;
46054;SDS011;31788;6.954;-71.872;2023-02-28T09:07:07;12.83;;;10.97;;
46054;SDS011;31788;6.954;-71.872;2023-02-28T09:09:34;12.25;;;10.93;;
46054;SDS011;31788;6.954;-71.872;2023-02-28T09:12:00;11.70;;;10.50;;
46054;SDS011;31788;6.954;-71.872;2023-02-28T09:14:27;14.35;;;10.82;;
46054;SDS011;31788;6.954;-71.872;2023-02-28T09:16:53;12.90;;;11.05;;
46054;SDS011;31788;6.954;-71.872;2023-02-28T09:19:20;12.70;;;10.63;;
46054;SDS011;31788;6.954;-71.872;2023-02-28T09:21:47;12.48;;;10.70;;
46054;SDS011;31788;6.954;-71.872;2023-02-28T09:24:14;12.02;;;10.57;;
46054;SDS011;31788;6.954;-71.872;2023-02-28T09:26:40;11.60;;;10.40;;
46054;SDS011;31788;6.954;-71.872;2023-02-28T09:29:07;11.80;;;10.60;;
46054;SDS011;31788;6.954;-71.872;2023-02-28T09:31:34;12.13;;;10.68;;
46054;SDS011;31788;6.954;-71.872;2023-02-28T09:34:00;12.07;;;10.63;;
46054;SDS011;31788;6.954;-71.872;2023-02-28T09:36:27;13.00;;;10.77;;
46054;SDS011;31788;6.954;-71.872;2023-02-28T09:38:55;11.95;;;10.75;;
46054;SDS011;31788;6.954;-71.872;2023-02-28T09:41:22;13.75;;;11.07;;
46054;SDS011;31788;6.954;-71.872;2023-02-28T09:43:57;14.80;;;11.00;;
46054;SDS011;31788;6.954;-71.872;2023-02-28T09:46:28;12.97;;;10.37;;
46054;SDS011;31788;6.954;-71.872;2023-02-28T09:48:56;17.08;;;11.50;;
46054;SDS011;31788;6.954;-71.872;2023-02-28T09:54:14;13.63;;;11.20;;
46054;SDS011;31788;6.954;-71.872;2023-02-28T09:56:58;11.88;;;10.63;;
46054;SDS011;31788;6.954;-71.872;2023-02-28T10:02:46;13.18;;;10.82;;
46054;SDS011;31788;6.954;-71.872;2023-02-28T10:05:28;14.17;;;10.77;;
46054;SDS011;31788;6.954;-71.872;2023-02-28T10:16:05;14.00;;;10.98;;
46054;SDS011;31788;6.954;-71.872;2023-02-28T10:18:49;15.02;;;11.27;;
46054;SDS011;31788;6.954;-71.872;2023-02-28T10:21:30;13.02;;;10.85;;
46054;SDS011;31788;6.954;-71.872;2023-02-28T10:26:55;18.67;;;12.00;;
46054;SDS011;31788;6.954;-71.872;2023-02-28T10:29:27;15.98;;;11.93;;
46054;SDS011;31788;6.954;-71.872;2023-02-28T10:31:57;15.43;;;11.68;;
46054;SDS011;31788;6.954;-71.872;2023-02-28T10:34:28;14.13;;;12.10;;
46054;SDS011;31788;6.954;-71.872;2023-02-28T10:36:54;14.10;;;11.50;;
46054;SDS011;31788;6.954;-71.872;2023-02-28T10:42:03;13.65;;;11.90;;
46054;SDS011;31788;6.954;-71.872;2023-02-28T10:44:30;15.88;;;11.32;;
46054;SDS011;31788;6.954;-71.872;2023-02-28T10:46:57;14.85;;;12.40;;
46054;SDS011;31788;6.954;-71.872;2023-02-28T10:49:25;19.13;;;12.68;;
46054;SDS011;31788;6.954;-71.872;2023-02-28T10:51:56;19.00;;;13.88;;
46054;SDS011;31788;6.954;-71.872;2023-02-28T10:54:30;22.13;;;13.82;;
46054;SDS011;31788;6.954;-71.872;2023-02-28T10:57:08;19.98;;;13.55;;
46054;SDS011;31788;6.954;-71.872;2023-02-28T10:59:35;20.67;;;14.68;;
46054;SDS011;31788;6.954;-71.872;2023-02-28T11:02:01;20.33;;;15.07;;
46054;SDS011;31788;6.954;-71.872;2023-02-28T11:04:48;19.05;;;14.23;;
46054;SDS011;31788;6.954;-71.872;2023-02-28T11:07:21;19.52;;;14.80;;
46054;SDS011;31788;6.954;-71.872;2023-02-28T11:09:52;20.77;;;13.40;;
46054;SDS011;31788;6.954;-71.872;2023-02-28T11:12:24;21.60;;;13.65;;
46054;SDS011;31788;6.954;-71.872;2023-02-28T11:15:02;19.60;;;13.48;;
46054;SDS011;31788;6.954;-71.872;2023-02-28T11:17:44;19.70;;;13.52;;
46054;SDS011;31788;6.954;-71.872;2023-02-28T11:20:24;21.17;;;12.85;;
46054;SDS011;31788;6.954;-71.872;2023-02-28T11:22:53;19.83;;;13.02;;
46054;SDS011;31788;6.954;-71.872;2023-02-28T11:25:24;19.63;;;13.27;;
46054;SDS011;31788;6.954;-71.872;2023-02-28T11:28:23;37.40;;;13.88;;
46054;SDS011;31788;6.954;-71.872;2023-02-28T11:31:01;30.08;;;13.93;;
46054;SDS011;31788;6.954;-71.872;2023-02-28T11:33:41;29.27;;;13.80;;
46054;SDS011;31788;6.954;-71.872;2023-02-28T11:36:13;33.92;;;15.30;;
46054;SDS011;31788;6.954;-71.872;2023-02-28T11:38:46;26.75;;;13.85;;
46054;SDS011;31788;6.954;-71.872;2023-02-28T11:47:24;25.23;;;19.27;;
46054;SDS011;31788;6.954;-71.872;2023-02-28T11:55:49;57.20;;;36.17;;
46054;SDS011;31788;6.954;-71.872;2023-02-28T12:09:51;39.97;;;23.20;;
46054;SDS011;31788;6.954;-71.872;2023-02-28T12:12:50;32.75;;;20.20;;
46054;SDS011;31788;6.954;-71.872;2023-02-28T12:21:11;30.80;;;18.08;;
46054;SDS011;31788;6.954;-71.872;2023-02-28T12:25:02;26.77;;;16.92;;
46054;SDS011;31788;6.954;-71.872;2023-02-28T12:27:20;25.67;;;16.98;;
46054;SDS011;31788;6.954;-71.872;2023-02-28T12:32:18;22.00;;;15.20;;
46054;SDS011;31788;6.954;-71.872;2023-02-28T12:35:04;17.58;;;13.45;;
46054;SDS011;31788;6.954;-71.872;2023-02-28T12:43:22;21.92;;;13.75;;
46054;SDS011;31788;6.954;-71.872;2023-02-28T12:48:26;18.65;;;14.15;;
46054;SDS011;31788;6.954;-71.872;2023-02-28T12:50:56;16.77;;;13.52;;
46054;SDS011;31788;6.954;-71.872;2023-02-28T12:53:47;20.83;;;13.70;;
46054;SDS011;31788;6.954;-71.872;2023-02-28T12:59:03;24.10;;;15.43;;
46054;SDS011;31788;6.954;-71.872;2023-02-28T13:04:52;22.23;;;14.93;;
46054;SDS011;31788;6.954;-71.872;2023-02-28T13:10:37;19.00;;;14.57;;
46054;SDS011;31788;6.954;-71.872;2023-02-28T13:13:15;18.73;;;14.82;;
46054;SDS011;31788;6.954;-71.872;2023-02-28T13:21:09;16.52;;;14.13;;
46054;SDS011;31788;6.954;-71.872;2023-02-28T13:26:22;15.18;;;13.55;;
46054;SDS011;31788;6.954;-71.872;2023-02-28T13:32:41;15.30;;;13.60;;
46054;SDS011;31788;6.954;-71.872;2023-02-28T13:39:52;16.38;;;14.05;;
46054;SDS011;31788;6.954;-71.872;2023-02-28T14:04:12;21.20;;;14.55;;
46054;SDS011;31788;6.954;-71.872;2023-02-28T14:06:59;17.85;;;14.35;;
46054;SDS011;31788;6.954;-71.872;2023-02-28T14:17:56;23.30;;;15.93;;
46054;SDS011;31788;6.954;-71.872;2023-02-28T14:20:25;19.85;;;15.15;;
46054;SDS011;31788;6.954;-71.872;2023-02-28T14:25:45;15.63;;;13.93;;
46054;SDS011;31788;6.954;-71.872;2023-02-28T14:32:13;15.35;;;13.68;;
46054;SDS011;31788;6.954;-71.872;2023-02-28T14:37:15;17.50;;;14.00;;
46054;SDS011;31788;6.954;-71.872;2023-02-28T14:39:56;15.82;;;13.90;;
46054;SDS011;31788;6.954;-71.872;2023-02-28T14:42:33;15.90;;;13.77;;
46054;SDS011;31788;6.954;-71.872;2023-02-28T14:45:03;17.27;;;13.90;;
46054;SDS011;31788;6.954;-71.872;2023-02-28T14:47:31;17.02;;;13.95;;
46054;SDS011;31788;6.954;-71.872;2023-02-28T14:50:01;17.63;;;14.02;;
46054;SDS011;31788;6.954;-71.872;2023-02-28T14:52:30;16.77;;;13.93;;
46054;SDS011;31788;6.954;-71.872;2023-02-28T14:57:27;17.48;;;14.65;;
46054;SDS011;31788;6.954;-71.872;2023-02-28T15:02:37;16.70;;;14.83;;
46054;SDS011;31788;6.954;-71.872;2023-02-28T15:07:42;19.65;;;14.27;;
46054;SDS011;31788;6.954;-71.872;2023-02-28T15:10:25;16.20;;;14.48;;
46054;SDS011;31788;6.954;-71.872;2023-02-28T15:12:54;16.13;;;14.05;;
46054;SDS011;31788;6.954;-71.872;2023-02-28T15:15:43;17.17;;;14.50;;
46054;SDS011;31788;6.954;-71.872;2023-02-28T15:18:25;16.52;;;14.75;;
46054;SDS011;31788;6.954;-71.872;2023-02-28T15:21:20;15.60;;;13.63;;
46054;SDS011;31788;6.954;-71.872;2023-02-28T15:23:53;15.43;;;13.27;;
46054;SDS011;31788;6.954;-71.872;2023-02-28T15:26:59;16.10;;;13.90;;
46054;SDS011;31788;6.954;-71.872;2023-02-28T15:29:23;16.90;;;14.25;;
46054;SDS011;31788;6.954;-71.872;2023-02-28T15:32:05;16.27;;;13.13;;
46054;SDS011;31788;6.954;-71.872;2023-02-28T15:34:40;14.75;;;12.30;;
46054;SDS011;31788;6.954;-71.872;2023-02-28T15:40:04;15.20;;;12.82;;
46054;SDS011;31788;6.954;-71.872;2023-02-28T15:42:58;15.73;;;12.93;;
46054;SDS011;31788;6.954;-71.872;2023-02-28T15:51:12;15.15;;;13.55;;
46054;SDS011;31788;6.954;-71.872;2023-02-28T15:53:50;15.88;;;13.02;;
46054;SDS011;31788;6.954;-71.872;2023-02-28T15:56:29;14.70;;;13.10;;
46054;SDS011;31788;6.954;-71.872;2023-02-28T15:59:01;15.45;;;12.80;;
46054;SDS011;31788;6.954;-71.872;2023-02-28T16:01:34;15.85;;;13.20;;
46054;SDS011;31788;6.954;-71.872;2023-02-28T16:04:22;15.02;;;13.43;;
46054;SDS011;31788;6.954;-71.872;2023-02-28T16:09:24;15.40;;;13.80;;
46054;SDS011;31788;6.954;-71.872;2023-02-28T16:11:53;14.85;;;13.27;;
46054;SDS011;31788;6.954;-71.872;2023-02-28T16:14:23;14.95;;;13.05;;
46054;SDS011;31788;6.954;-71.872;2023-02-28T16:16:56;15.48;;;13.25;;
46054;SDS011;31788;6.954;-71.872;2023-02-28T16:19:29;22.45;;;14.57;;
46054;SDS011;31788;6.954;-71.872;2023-02-28T16:21:56;21.02;;;14.82;;
46054;SDS011;31788;6.954;-71.872;2023-02-28T16:24:23;17.73;;;14.23;;
46054;SDS011;31788;6.954;-71.872;2023-02-28T16:26:50;19.08;;;13.90;;
46054;SDS011;31788;6.954;-71.872;2023-02-28T16:29:30;16.15;;;13.75;;
46054;SDS011;31788;6.954;-71.872;2023-02-28T16:32:01;17.80;;;14.80;;
46054;SDS011;31788;6.954;-71.872;2023-02-28T16:34:30;17.43;;;14.60;;
46054;SDS011;31788;6.954;-71.872;2023-02-28T16:36:57;16.50;;;14.10;;
46054;SDS011;31788;6.954;-71.872;2023-02-28T16:39:24;17.80;;;14.02;;
46054;SDS011;31788;6.954;-71.872;2023-02-28T16:41:51;16.80;;;13.40;;
46054;SDS011;31788;6.954;-71.872;2023-02-28T16:46:47;16.42;;;13.07;;
46054;SDS011;31788;6.954;-71.872;2023-02-28T16:49:14;15.30;;;13.18;;
46054;SDS011;31788;6.954;-71.872;2023-02-28T16:51:40;15.02;;;13.27;;
46054;SDS011;31788;6.954;-71.872;2023-02-28T16:54:07;14.93;;;12.55;;
46054;SDS011;31788;6.954;-71.872;2023-02-28T16:56:33;16.20;;;13.15;;
46054;SDS011;31788;6.954;-71.872;2023-02-28T16:59:01;14.45;;;12.98;;
46054;SDS011;31788;6.954;-71.872;2023-02-28T17:01:28;14.30;;;12.45;;
46054;SDS011;31788;6.954;-71.872;2023-02-28T17:03:56;15.27;;;13.03;;
46054;SDS011;31788;6.954;-71.872;2023-02-28T17:06:24;15.02;;;12.88;;
46054;SDS011;31788;6.954;-71.872;2023-02-28T17:08:53;15.23;;;12.77;;
46054;SDS011;31788;6.954;-71.872;2023-02-28T17:11:21;14.88;;;12.93;;
46054;SDS011;31788;6.954;-71.872;2023-02-28T17:13:48;13.95;;;12.38;;
46054;SDS011;31788;6.954;-71.872;2023-02-28T17:16:25;15.55;;;12.95;;
46054;SDS011;31788;6.954;-71.872;2023-02-28T17:18:56;16.08;;;13.68;;
46054;SDS011;31788;6.954;-71.872;2023-02-28T17:21:25;14.27;;;12.77;;
46054;SDS011;31788;6.954;-71.872;2023-02-28T17:23:52;14.95;;;13.30;;
46054;SDS011;31788;6.954;-71.872;2023-02-28T17:26:19;15.18;;;13.43;;
46054;SDS011;31788;6.954;-71.872;2023-02-28T17:28:47;14.55;;;13.05;;
46054;SDS011;31788;6.954;-71.872;2023-02-28T17:31:16;16.45;;;13.52;;
46054;SDS011;31788;6.954;-71.872;2023-02-28T17:33:43;14.88;;;13.38;;
46054;SDS011;31788;6.954;-71.872;2023-02-28T17:36:14;15.20;;;13.40;;
46054;SDS011;31788;6.954;-71.872;2023-02-28T17:38:42;17.05;;;13.70;;
46054;SDS011;31788;6.954;-71.872;2023-02-28T17:41:12;15.35;;;13.68;;